Weather at Havre City County Airport

Public forecast

Using degrees Fahrenheit for public forecast. Weather courtesy of forecast.io.

Current aviation weather report (METAR) for Havre City County Airport

Retrieved 2021/04/20 19:53 UTC (13 minutes ago):

KHVR 201953Z AUTO 10SM FEW060 08/M08 A3031 RMK AO2 SLP286 T00781078

Aviation forecast (TAF) for Havre City County Airport

Retrieved 2021/04/20 18:22 UTC (2 hours ago):

TAF KHVR 201720Z 2018/2118 34008KT P6SM SCT050 FM210200 VRB04KT P6SM FEW250 FM211500 22009KT P6SM SKC FM211700 22012G20KT P6SM SKC